Time;durP1;ratioP1;P1;durP2;ratioP2;P2;SDS_P1;SDS_P2;PMS_P1;PMS_P2;Temp;Humidity;BMP_temperature;BMP_pressure;BME280_temperature;BME280_humidity;BME280_pressure;Samples;Min_cycle;Max_cycle;Signal;HPM_P1;HPM_P2
2022/08/23 00:00:47;;;;;;;8.85;3.65;;;;;;;;;;5076021;28;20047;-64
2022/08/23 00:03:12;;;;;;;10.18;3.90;;;;;;;;;;5074751;28;20039;-64
2022/08/23 00:05:38;;;;;;;11.07;4.43;;;;;;;;;;5076079;28;20123;-64
2022/08/23 00:08:04;;;;;;;11.98;4.90;;;;;;;;;;5075805;28;20024;-64
2022/08/23 00:10:29;;;;;;;14.32;5.60;;;;;;;;;;5075583;28;20040;-65
2022/08/23 00:12:55;;;;;;;13.98;5.57;;;;;;;;;;5075944;28;20372;-65
2022/08/23 00:15:21;;;;;;;9.80;5.13;;;;;;;;;;5075687;28;20134;-66
2022/08/23 00:17:47;;;;;;;12.45;5.80;;;;;;;;;;5075717;28;20031;-64
2022/08/23 00:20:16;;;;;;;12.52;5.35;;;;;;;;;;5075827;28;20445;-65
2022/08/23 00:22:42;;;;;;;14.65;5.40;;;;;;;;;;5075635;28;20107;-65
2022/08/23 00:25:10;;;;;;;16.75;6.38;;;;;;;;;;5075433;28;20056;-64
2022/08/23 00:27:36;;;;;;;15.35;5.90;;;;;;;;;;5074239;28;20029;-64
2022/08/23 00:30:05;;;;;;;11.98;5.45;;;;;;;;;;5075315;28;20047;-65
2022/08/23 00:32:33;;;;;;;11.43;5.80;;;;;;;;;;5075351;28;20033;-65
2022/08/23 00:35:00;;;;;;;13.82;5.78;;;;;;;;;;5075432;28;20028;-66
2022/08/23 00:37:26;;;;;;;11.75;5.60;;;;;;;;;;5075257;28;20194;-65
2022/08/23 00:39:52;;;;;;;11.48;6.13;;;;;;;;;;5075096;28;20389;-65
2022/08/23 00:48:43;;;;;;;12.55;4.80;;;;;;;;;;5075536;28;20188;-65
2022/08/23 00:51:14;;;;;;;10.40;4.35;;;;;;;;;;5075143;28;20059;-65
2022/08/23 00:53:48;;;;;;;9.40;4.28;;;;;;;;;;5074928;28;20045;-64
2022/08/23 00:56:16;;;;;;;8.93;4.30;;;;;;;;;;5074875;28;20025;-64
2022/08/23 00:58:42;;;;;;;8.68;3.95;;;;;;;;;;5074967;28;20090;-65
2022/08/23 01:01:08;;;;;;;8.70;4.03;;;;;;;;;;5075045;28;20036;-64
2022/08/23 01:03:36;;;;;;;10.95;4.45;;;;;;;;;;5074951;28;20024;-65
2022/08/23 01:06:25;;;;;;;9.20;3.75;;;;;;;;;;5074788;28;20081;-64
2022/08/23 01:08:56;;;;;;;8.55;3.85;;;;;;;;;;5074662;28;20020;-67
2022/08/23 01:11:32;;;;;;;9.88;4.13;;;;;;;;;;5074787;28;20024;-65
2022/08/23 01:14:04;;;;;;;8.60;4.13;;;;;;;;;;5074776;28;20040;-64
2022/08/23 01:16:36;;;;;;;8.18;3.75;;;;;;;;;;5074674;28;20032;-64
2022/08/23 01:19:04;;;;;;;10.02;3.53;;;;;;;;;;5074520;28;20459;-65
2022/08/23 01:21:42;;;;;;;7.95;3.63;;;;;;;;;;5074638;28;20429;-64
2022/08/23 01:24:09;;;;;;;8.18;3.60;;;;;;;;;;5074336;28;20055;-66
2022/08/23 01:26:35;;;;;;;13.13;4.22;;;;;;;;;;5074502;28;20052;-64
2022/08/23 01:29:04;;;;;;;9.40;4.13;;;;;;;;;;5074330;28;20063;-65
2022/08/23 01:31:30;;;;;;;9.60;4.70;;;;;;;;;;5074283;28;20040;-64
2022/08/23 01:34:07;;;;;;;7.72;4.03;;;;;;;;;;5074256;28;20024;-64
2022/08/23 01:36:34;;;;;;;13.85;4.95;;;;;;;;;;5074260;28;20029;-65
2022/08/23 01:39:00;;;;;;;10.82;5.43;;;;;;;;;;5073484;28;20029;-64
2022/08/23 01:41:26;;;;;;;9.02;4.63;;;;;;;;;;5073952;28;20074;-65
2022/08/23 01:43:52;;;;;;;9.02;3.92;;;;;;;;;;5074042;28;20434;-64
2022/08/23 01:46:19;;;;;;;12.95;4.57;;;;;;;;;;5074136;28;20025;-64
2022/08/23 01:48:47;;;;;;;11.02;4.32;;;;;;;;;;5074002;28;20099;-64
2022/08/23 01:51:15;;;;;;;12.32;4.45;;;;;;;;;;5073941;28;20448;-65
2022/08/23 01:53:41;;;;;;;7.45;4.25;;;;;;;;;;5073426;28;20117;-65
2022/08/23 01:56:07;;;;;;;8.65;4.50;;;;;;;;;;5073704;28;20032;-64
2022/08/23 01:58:34;;;;;;;9.40;4.35;;;;;;;;;;5073814;28;20507;-65
2022/08/23 02:01:00;;;;;;;7.15;4.20;;;;;;;;;;5073605;28;20074;-64
2022/08/23 02:03:27;;;;;;;7.30;4.18;;;;;;;;;;5073857;28;20048;-64
2022/08/23 02:05:52;;;;;;;10.57;4.15;;;;;;;;;;5073441;28;20032;-64
2022/08/23 02:11:11;;;;;;;6.70;3.63;;;;;;;;;;5073590;28;20026;-64
2022/08/23 02:13:36;;;;;;;9.18;3.78;;;;;;;;;;5073450;28;20107;-64
2022/08/23 02:16:03;;;;;;;9.18;3.85;;;;;;;;;;5073323;28;20099;-64
2022/08/23 02:18:28;;;;;;;7.95;4.10;;;;;;;;;;5073543;28;20028;-64
2022/08/23 02:20:54;;;;;;;7.80;3.80;;;;;;;;;;5072968;28;20421;-64
2022/08/23 02:23:21;;;;;;;7.38;3.65;;;;;;;;;;5073347;28;20027;-64
2022/08/23 02:25:48;;;;;;;6.57;3.67;;;;;;;;;;5073367;28;20123;-64
2022/08/23 02:28:13;;;;;;;9.63;4.53;;;;;;;;;;5073143;28;20031;-64
2022/08/23 02:30:39;;;;;;;9.43;5.10;;;;;;;;;;5073123;28;20426;-64
2022/08/23 02:33:05;;;;;;;9.75;5.25;;;;;;;;;;5073169;28;20028;-64
2022/08/23 02:35:32;;;;;;;12.70;5.43;;;;;;;;;;5072926;28;20029;-64
2022/08/23 02:38:02;;;;;;;10.30;5.18;;;;;;;;;;5073132;28;20086;-65
2022/08/23 02:40:28;;;;;;;;;;;;;;;;;;5073574;28;20028;-64
2022/08/23 02:42:53;;;;;;;10.27;4.45;;;;;;;;;;5072902;28;19927;-65
2022/08/23 02:45:19;;;;;;;12.38;4.97;;;;;;;;;;5072989;28;20169;-64
2022/08/23 02:47:45;;;;;;;11.20;4.93;;;;;;;;;;5071715;28;20062;-64
2022/08/23 02:50:11;;;;;;;8.75;4.88;;;;;;;;;;5072002;28;20035;-64
2022/08/23 02:52:36;;;;;;;8.00;4.82;;;;;;;;;;5072642;28;20051;-64
2022/08/23 02:55:02;;;;;;;8.45;4.78;;;;;;;;;;5072981;28;20016;-64
2022/08/23 02:57:27;;;;;;;9.32;5.40;;;;;;;;;;5072760;28;20036;-65
2022/08/23 02:59:53;;;;;;;11.93;5.75;;;;;;;;;;5072980;28;20070;-64
2022/08/23 03:02:19;;;;;;;11.00;5.50;;;;;;;;;;5072908;28;20024;-64
2022/08/23 03:04:44;;;;;;;9.77;5.20;;;;;;;;;;5072652;28;20020;-65
2022/08/23 03:07:10;;;;;;;10.05;4.85;;;;;;;;;;5072934;28;20028;-64
2022/08/23 03:09:36;;;;;;;11.13;5.40;;;;;;;;;;5072670;28;20044;-64
2022/08/23 03:12:02;;;;;;;10.07;4.90;;;;;;;;;;5072654;28;20028;-64
2022/08/23 03:14:27;;;;;;;12.63;5.18;;;;;;;;;;5072847;28;20523;-64
2022/08/23 03:16:53;;;;;;;9.15;4.63;;;;;;;;;;5072485;28;20119;-64
2022/08/23 03:19:20;;;;;;;10.85;4.93;;;;;;;;;;5072322;28;20096;-64
2022/08/23 03:21:46;;;;;;;9.43;4.88;;;;;;;;;;5072625;28;20024;-64
2022/08/23 03:24:12;;;;;;;10.07;4.85;;;;;;;;;;5072576;28;20514;-64
2022/08/23 03:26:41;;;;;;;9.07;4.78;;;;;;;;;;5072574;28;20067;-64
2022/08/23 03:29:07;;;;;;;11.30;4.90;;;;;;;;;;5072511;28;20032;-65
2022/08/23 03:31:32;;;;;;;11.52;4.88;;;;;;;;;;5072420;28;20257;-64
2022/08/23 03:33:58;;;;;;;9.07;4.55;;;;;;;;;;5072342;28;20020;-65
2022/08/23 03:36:23;;;;;;;10.40;5.35;;;;;;;;;;5072785;28;20028;-64
2022/08/23 03:38:49;;;;;;;11.43;5.13;;;;;;;;;;5072344;28;20414;-64
2022/08/23 03:41:14;;;;;;;10.60;5.75;;;;;;;;;;5072389;28;20596;-64
2022/08/23 03:43:41;;;;;;;8.02;4.80;;;;;;;;;;5072253;28;20474;-64
2022/08/23 03:46:06;;;;;;;10.65;4.55;;;;;;;;;;5072288;28;20037;-64
2022/08/23 03:48:32;;;;;;;8.95;4.20;;;;;;;;;;5072129;28;20090;-64
2022/08/23 03:50:58;;;;;;;8.40;4.40;;;;;;;;;;5072424;28;20034;-64
2022/08/23 03:53:23;;;;;;;10.18;4.50;;;;;;;;;;5072109;28;20131;-65
2022/08/23 03:55:51;;;;;;;10.43;4.90;;;;;;;;;;5072229;28;20482;-64
2022/08/23 03:58:16;;;;;;;11.18;5.07;;;;;;;;;;5072128;28;20486;-64
2022/08/23 04:00:42;;;;;;;9.68;5.00;;;;;;;;;;5072137;28;20028;-64
2022/08/23 04:03:08;;;;;;;11.77;5.28;;;;;;;;;;5074968;28;20029;-64
2022/08/23 04:05:34;;;;;;;11.82;6.03;;;;;;;;;;5076028;28;20027;-64
2022/08/23 04:08:06;;;;;;;10.50;5.45;;;;;;;;;;5075633;28;20029;-64
2022/08/23 04:10:31;;;;;;;10.00;5.13;;;;;;;;;;5075885;28;20035;-65
2022/08/23 04:12:57;;;;;;;11.35;5.88;;;;;;;;;;5075848;28;20371;-64
2022/08/23 04:15:23;;;;;;;11.70;5.78;;;;;;;;;;5075715;28;20044;-64
2022/08/23 04:17:49;;;;;;;13.27;6.00;;;;;;;;;;5075335;28;20114;-64
2022/08/23 04:20:16;;;;;;;12.65;5.10;;;;;;;;;;5075555;28;20547;-65
2022/08/23 04:22:42;;;;;;;12.35;5.22;;;;;;;;;;5075467;28;20067;-63
2022/08/23 04:25:08;;;;;;;8.68;4.43;;;;;;;;;;5075455;28;20028;-64
2022/08/23 04:27:34;;;;;;;9.23;4.40;;;;;;;;;;5075290;28;20039;-64
2022/08/23 04:29:59;;;;;;;7.15;4.30;;;;;;;;;;5075213;28;20416;-64
2022/08/23 04:32:24;;;;;;;8.98;4.47;;;;;;;;;;5075303;28;20475;-64
2022/08/23 04:34:50;;;;;;;10.88;4.18;;;;;;;;;;5075473;28;20021;-64
2022/08/23 04:37:16;;;;;;;6.90;4.13;;;;;;;;;;5075312;28;20032;-64
2022/08/23 04:42:26;;;;;;;6.65;4.20;;;;;;;;;;5075221;28;20035;-64
2022/08/23 04:44:51;;;;;;;9.73;3.42;;;;;;;;;;5075238;28;20029;-65
2022/08/23 04:47:17;;;;;;;5.25;3.10;;;;;;;;;;5074940;28;20013;-65
2022/08/23 04:49:42;;;;;;;7.40;3.47;;;;;;;;;;5075217;28;20052;-64
2022/08/23 04:52:08;;;;;;;7.78;3.33;;;;;;;;;;5074793;28;20479;-65
2022/08/23 04:54:34;;;;;;;6.57;3.55;;;;;;;;;;5075047;28;20055;-64
2022/08/23 04:57:00;;;;;;;7.90;3.47;;;;;;;;;;5074943;28;20115;-65
2022/08/23 04:59:25;;;;;;;8.77;4.60;;;;;;;;;;5073588;28;20491;-64
2022/08/23 05:01:51;;;;;;;10.48;4.55;;;;;;;;;;5074804;28;20467;-64
2022/08/23 05:04:17;;;;;;;9.52;5.55;;;;;;;;;;5074831;28;20029;-65
2022/08/23 05:06:44;;;;;;;9.95;4.97;;;;;;;;;;5074709;28;20025;-65
2022/08/23 05:09:09;;;;;;;13.25;5.00;;;;;;;;;;5074647;28;20039;-64
2022/08/23 05:11:35;;;;;;;12.73;4.65;;;;;;;;;;5074610;28;20016;-65
2022/08/23 05:14:00;;;;;;;7.72;4.22;;;;;;;;;;5073886;28;20020;-66
2022/08/23 05:16:26;;;;;;;6.85;3.80;;;;;;;;;;5074304;28;20375;-66
2022/08/23 05:18:51;;;;;;;9.35;4.10;;;;;;;;;;5074525;28;20025;-66
2022/08/23 05:21:20;;;;;;;4.97;3.50;;;;;;;;;;5074541;28;20025;-66
2022/08/23 05:23:46;;;;;;;7.25;4.20;;;;;;;;;;5074485;28;20025;-66
2022/08/23 05:26:12;;;;;;;10.45;4.28;;;;;;;;;;5074339;28;20100;-66
2022/08/23 05:28:43;;;;;;;14.27;4.75;;;;;;;;;;5072955;28;20035;-66
2022/08/23 05:31:13;;;;;;;7.40;4.35;;;;;;;;;;5073919;28;20033;-66
2022/08/23 05:33:39;;;;;;;12.40;4.47;;;;;;;;;;5074363;28;20031;-66
2022/08/23 05:36:06;;;;;;;34.92;6.05;;;;;;;;;;5074003;28;20502;-66
2022/08/23 05:38:33;;;;;;;93.68;7.97;;;;;;;;;;5074013;28;20028;-66
2022/08/23 05:41:00;;;;;;;44.20;6.55;;;;;;;;;;5072660;28;20020;-66
2022/08/23 05:43:27;;;;;;;43.97;6.10;;;;;;;;;;5073907;28;20021;-66
2022/08/23 05:46:04;;;;;;;13.23;4.20;;;;;;;;;;5073570;28;20376;-66
2022/08/23 05:48:32;;;;;;;10.68;4.10;;;;;;;;;;5073898;28;20383;-66
2022/08/23 05:51:11;;;;;;;9.43;4.50;;;;;;;;;;5073957;28;20078;-66
2022/08/23 05:53:37;;;;;;;8.63;4.65;;;;;;;;;;5073580;28;20083;-64
2022/08/23 05:56:36;;;;;;;11.40;5.28;;;;;;;;;;5073840;28;20032;-65
2022/08/23 05:59:07;;;;;;;11.90;5.72;;;;;;;;;;5051242;28;20175;-65
2022/08/23 06:01:34;;;;;;;12.40;5.65;;;;;;;;;;5051436;28;20082;-65
2022/08/23 06:04:04;;;;;;;15.02;5.20;;;;;;;;;;5051614;28;20510;-65
2022/08/23 06:06:30;;;;;;;9.32;4.88;;;;;;;;;;5051410;28;20052;-66
2022/08/23 06:08:56;;;;;;;13.48;6.28;;;;;;;;;;5051273;28;20111;-64
2022/08/23 06:11:26;;;;;;;10.38;4.43;;;;;;;;;;5051414;28;20399;-65
2022/08/23 06:13:57;;;;;;;15.40;4.18;;;;;;;;;;5050856;28;20032;-65
2022/08/23 06:16:28;;;;;;;10.40;4.70;;;;;;;;;;5051347;28;20033;-65
2022/08/23 06:18:56;;;;;;;9.15;4.05;;;;;;;;;;5051177;28;20124;-65
2022/08/23 06:21:22;;;;;;;16.13;4.60;;;;;;;;;;5034455;28;20033;-65
2022/08/23 06:23:48;;;;;;;5.82;3.30;;;;;;;;;;5051365;28;20609;-65
2022/08/23 06:26:37;;;;;;;9.02;2.90;;;;;;;;;;5051250;28;20044;-65
2022/08/23 06:29:05;;;;;;;8.23;3.38;;;;;;;;;;5050958;28;20033;-65
2022/08/23 06:31:49;;;;;;;9.70;3.45;;;;;;;;;;5051047;28;20088;-65
2022/08/23 06:34:21;;;;;;;10.90;3.15;;;;;;;;;;5059104;28;20036;-65
2022/08/23 06:36:55;;;;;;;7.70;2.80;;;;;;;;;;5073031;28;20077;-65
2022/08/23 06:39:23;;;;;;;6.35;2.30;;;;;;;;;;5073074;28;20020;-65
2022/08/23 06:41:49;;;;;;;5.63;2.10;;;;;;;;;;5072863;28;20032;-65
2022/08/23 06:44:17;;;;;;;4.97;2.15;;;;;;;;;;5072742;28;20064;-66
2022/08/23 06:46:43;;;;;;;5.32;2.00;;;;;;;;;;5072587;28;20442;-66
2022/08/23 06:49:09;;;;;;;6.93;2.10;;;;;;;;;;5072860;28;20036;-64
2022/08/23 06:51:42;;;;;;;10.18;2.08;;;;;;;;;;5069931;28;20025;-65
2022/08/23 06:54:11;;;;;;;8.40;2.05;;;;;;;;;;5064870;28;20052;-64
2022/08/23 06:56:37;;;;;;;5.13;2.17;;;;;;;;;;5059090;28;20399;-64
2022/08/23 06:59:05;;;;;;;4.18;1.98;;;;;;;;;;5053486;28;20024;-64
2022/08/23 07:01:42;;;;;;;4.15;1.85;;;;;;;;;;5058235;28;20368;-65
2022/08/23 07:04:09;;;;;;;5.45;2.00;;;;;;;;;;5058128;28;20025;-65
2022/08/23 07:06:35;;;;;;;5.20;1.92;;;;;;;;;;5060910;28;20095;-65
2022/08/23 07:09:02;;;;;;;11.18;2.00;;;;;;;;;;5058221;28;20050;-64
2022/08/23 07:11:31;;;;;;;8.15;1.95;;;;;;;;;;5051528;28;20040;-64
2022/08/23 07:14:01;;;;;;;6.05;1.90;;;;;;;;;;5055687;28;20037;-65
2022/08/23 07:16:36;;;;;;;7.82;2.00;;;;;;;;;;5062116;28;20032;-65
2022/08/23 07:19:02;;;;;;;6.85;2.05;;;;;;;;;;5061645;28;20032;-66
2022/08/23 07:21:28;;;;;;;4.70;1.83;;;;;;;;;;5059319;28;20148;-65
2022/08/23 07:23:54;;;;;;;5.03;2.08;;;;;;;;;;5052856;28;20103;-66
2022/08/23 07:26:21;;;;;;;5.65;1.90;;;;;;;;;;5054702;28;20041;-66
2022/08/23 07:28:47;;;;;;;5.90;2.00;;;;;;;;;;5061044;28;20500;-66
2022/08/23 07:31:29;;;;;;;5.53;2.00;;;;;;;;;;5048198;28;20400;-65
2022/08/23 07:33:57;;;;;;;7.10;2.10;;;;;;;;;;5054954;28;20507;-66
2022/08/23 07:36:23;;;;;;;6.72;1.92;;;;;;;;;;5058060;28;20028;-65
2022/08/23 07:38:49;;;;;;;7.38;2.20;;;;;;;;;;5071527;28;20021;-66
2022/08/23 07:41:16;;;;;;;5.28;1.92;;;;;;;;;;5064035;28;20030;-66
2022/08/23 07:43:42;;;;;;;5.30;1.77;;;;;;;;;;5073391;28;20090;-65
2022/08/23 07:46:08;;;;;;;5.60;1.90;;;;;;;;;;5062296;28;20024;-66
2022/08/23 07:48:34;;;;;;;3.90;1.90;;;;;;;;;;5070361;28;20082;-65
2022/08/23 07:51:02;;;;;;;6.93;2.10;;;;;;;;;;5061019;28;20063;-65
2022/08/23 07:53:28;;;;;;;6.20;1.85;;;;;;;;;;5066034;28;20041;-66
2022/08/23 07:55:55;;;;;;;5.35;2.10;;;;;;;;;;5057687;28;20090;-66
2022/08/23 07:58:22;;;;;;;4.25;2.10;;;;;;;;;;5052273;28;20357;-66
2022/08/23 08:00:47;;;;;;;5.63;2.00;;;;;;;;;;5069838;28;20471;-65
2022/08/23 08:03:14;;;;;;;7.15;1.88;;;;;;;;;;5071868;28;20040;-66
2022/08/23 08:05:40;;;;;;;6.38;1.85;;;;;;;;;;5052818;28;20028;-66
2022/08/23 08:08:07;;;;;;;5.88;1.90;;;;;;;;;;5051290;28;20558;-66
2022/08/23 08:10:39;;;;;;;6.93;1.83;;;;;;;;;;5052146;28;20128;-65
2022/08/23 08:13:04;;;;;;;5.95;1.88;;;;;;;;;;5051654;28;20492;-66
2022/08/23 08:15:30;;;;;;;4.15;1.83;;;;;;;;;;5051298;28;20075;-65
2022/08/23 08:17:55;;;;;;;7.30;2.05;;;;;;;;;;5063366;28;20040;-66
2022/08/23 08:20:22;;;;;;;5.85;1.88;;;;;;;;;;5052349;28;20467;-66
2022/08/23 08:22:48;;;;;;;6.10;1.83;;;;;;;;;;5051073;28;20089;-64
2022/08/23 08:25:14;;;;;;;6.10;2.22;;;;;;;;;;5062062;28;20425;-65
2022/08/23 08:27:41;;;;;;;9.63;2.90;;;;;;;;;;5053700;28;20040;-66
2022/08/23 08:30:07;;;;;;;5.95;2.58;;;;;;;;;;5064146;28;20033;-66
2022/08/23 08:32:33;;;;;;;8.23;1.88;;;;;;;;;;5051175;28;20033;-66
2022/08/23 08:34:59;;;;;;;6.55;2.00;;;;;;;;;;5061348;28;20035;-65
2022/08/23 08:37:25;;;;;;;7.47;1.92;;;;;;;;;;5070056;28;20036;-65
2022/08/23 08:39:51;;;;;;;3.63;2.00;;;;;;;;;;5059302;28;20039;-66
2022/08/23 08:42:28;;;;;;;5.63;2.40;;;;;;;;;;5051105;28;20474;-66
2022/08/23 08:45:10;;;;;;;7.70;1.75;;;;;;;;;;5050811;28;20574;-65
2022/08/23 08:47:57;;;;;;;5.68;1.90;;;;;;;;;;5068270;28;20464;-65
2022/08/23 08:50:31;;;;;;;5.07;1.98;;;;;;;;;;5070548;28;20062;-65
2022/08/23 08:53:07;;;;;;;6.28;1.80;;;;;;;;;;5070135;28;20485;-67
2022/08/23 08:55:41;;;;;;;6.05;2.60;;;;;;;;;;5070488;28;20510;-64
2022/08/23 08:58:16;;;;;;;8.70;2.22;;;;;;;;;;5070588;28;20044;-66
2022/08/23 09:00:42;;;;;;;7.88;2.00;;;;;;;;;;5070960;28;20479;-65
2022/08/23 09:03:14;;;;;;;5.32;1.90;;;;;;;;;;5071462;28;20082;-65
2022/08/23 09:05:54;;;;;;;4.25;2.08;;;;;;;;;;5070496;28;20028;-65
2022/08/23 09:08:22;;;;;;;4.82;2.13;;;;;;;;;;5070750;28;20024;-66
2022/08/23 09:11:06;;;;;;;5.00;1.70;;;;;;;;;;5065704;28;20499;-66
2022/08/23 09:14:03;;;;;;;4.05;1.70;;;;;;;;;;5064751;28;20138;-65
2022/08/23 09:17:06;;;;;;;5.25;1.70;;;;;;;;;;5069941;28;20476;-66
2022/08/23 09:19:36;;;;;;;4.05;1.70;;;;;;;;;;5067662;28;20032;-65
2022/08/23 09:22:12;;;;;;;5.68;2.00;;;;;;;;;;5062630;28;20426;-66
2022/08/23 09:24:38;;;;;;;4.63;1.65;;;;;;;;;;5067956;28;20094;-66
2022/08/23 09:27:04;;;;;;;5.35;1.90;;;;;;;;;;5059881;28;20094;-66
2022/08/23 09:29:32;;;;;;;5.78;1.73;;;;;;;;;;5062717;28;20496;-65
2022/08/23 09:32:01;;;;;;;3.85;1.50;;;;;;;;;;5060152;28;20045;-65
2022/08/23 09:34:29;;;;;;;6.80;1.95;;;;;;;;;;5062091;28;20038;-65
2022/08/23 09:37:16;;;;;;;4.63;1.50;;;;;;;;;;5069277;28;20078;-66
2022/08/23 09:40:04;;;;;;;6.68;1.70;;;;;;;;;;5058184;28;20021;-68
2022/08/23 09:42:36;;;;;;;6.63;2.00;;;;;;;;;;5058922;28;20035;-64
2022/08/23 09:45:25;;;;;;;3.40;1.70;;;;;;;;;;5062010;28;20471;-66
2022/08/23 09:47:51;;;;;;;4.68;1.60;;;;;;;;;;5055777;28;20407;-66
2022/08/23 09:50:25;;;;;;;7.88;2.05;;;;;;;;;;5052406;28;20036;-65
2022/08/23 09:53:12;;;;;;;5.07;1.80;;;;;;;;;;5060968;28;20044;-66
2022/08/23 09:55:41;;;;;;;6.63;1.55;;;;;;;;;;5058124;28;20509;-66
2022/08/23 09:58:36;;;;;;;5.25;1.65;;;;;;;;;;5055962;28;20044;-65
2022/08/23 10:01:25;;;;;;;5.05;2.00;;;;;;;;;;5064934;28;20021;-64
2022/08/23 10:04:13;;;;;;;6.15;1.70;;;;;;;;;;5068916;28;20029;-65
2022/08/23 10:06:40;;;;;;;5.38;1.90;;;;;;;;;;5067684;28;20024;-66
2022/08/23 10:09:08;;;;;;;5.45;1.60;;;;;;;;;;5069292;28;20597;-66
2022/08/23 10:11:39;;;;;;;4.78;1.95;;;;;;;;;;5057866;28;20041;-66
2022/08/23 10:14:05;;;;;;;4.85;1.67;;;;;;;;;;5051639;28;20464;-67
2022/08/23 10:16:39;;;;;;;4.43;1.90;;;;;;;;;;5049304;28;20060;-66
2022/08/23 10:19:07;;;;;;;5.57;1.73;;;;;;;;;;5068164;28;20407;-67
2022/08/23 10:21:56;;;;;;;4.43;1.70;;;;;;;;;;5068247;28;20028;-68
2022/08/23 10:24:36;;;;;;;4.55;1.80;;;;;;;;;;5068335;28;20108;-66
2022/08/23 10:30:10;;;;;;;6.65;1.80;;;;;;;;;;5068438;28;20036;-67
2022/08/23 10:32:38;;;;;;;6.60;1.80;;;;;;;;;;5060677;28;20040;-67
2022/08/23 10:35:24;;;;;;;7.82;1.80;;;;;;;;;;5048349;28;20108;-66
2022/08/23 10:37:53;;;;;;;4.93;1.52;;;;;;;;;;5067302;28;20185;-66
2022/08/23 10:40:34;;;;;;;4.93;1.73;;;;;;;;;;5049089;28;20025;-67
2022/08/23 10:43:24;;;;;;;5.32;1.83;;;;;;;;;;5049413;28;20025;-66
2022/08/23 10:45:50;;;;;;;;;;;;;;;;;;5069017;28;20075;-66
2022/08/23 10:48:50;;;;;;;7.78;2.00;;;;;;;;;;5069034;28;20348;-65
2022/08/23 10:51:32;;;;;;;4.40;1.73;;;;;;;;;;5067009;28;20047;-68
2022/08/23 10:54:05;;;;;;;4.03;1.80;;;;;;;;;;5048073;28;20056;-66
2022/08/23 10:56:31;;;;;;;7.20;2.00;;;;;;;;;;5067789;28;20490;-66
2022/08/23 10:59:02;;;;;;;5.20;2.00;;;;;;;;;;5068762;28;20029;-65
2022/08/23 11:01:39;;;;;;;7.82;2.25;;;;;;;;;;5068197;28;20059;-65
2022/08/23 11:04:13;;;;;;;6.78;1.98;;;;;;;;;;5067940;28;20111;-65
2022/08/23 11:06:44;;;;;;;6.50;1.90;;;;;;;;;;5065111;28;20375;-65
2022/08/23 11:09:16;;;;;;;10.02;2.08;;;;;;;;;;5056198;28;20078;-66
2022/08/23 11:11:47;;;;;;;6.32;2.08;;;;;;;;;;5055627;28;20108;-65
2022/08/23 11:14:31;;;;;;;9.73;2.40;;;;;;;;;;5053142;28;20064;-66
2022/08/23 11:16:59;;;;;;;3.85;2.10;;;;;;;;;;5056203;28;20020;-66
2022/08/23 11:19:49;;;;;;;5.15;2.05;;;;;;;;;;5058767;28;20464;-65
2022/08/23 11:22:17;;;;;;;;;;;;;;;;;;5060762;28;20033;-65
2022/08/23 11:24:53;;;;;;;7.13;2.30;;;;;;;;;;5055915;28;19912;-66
2022/08/23 11:27:40;;;;;;;9.05;2.45;;;;;;;;;;5058544;28;20051;-66
2022/08/23 11:30:30;;;;;;;6.28;2.30;;;;;;;;;;5054675;28;20021;-66
2022/08/23 11:33:08;;;;;;;7.97;2.30;;;;;;;;;;5065031;28;20057;-66
2022/08/23 11:35:40;;;;;;;5.63;2.20;;;;;;;;;;5057849;28;20029;-66
2022/08/23 11:38:06;;;;;;;8.25;2.85;;;;;;;;;;5060185;28;20044;-66
2022/08/23 11:40:49;;;;;;;7.65;2.40;;;;;;;;;;5057751;28;20025;-66
2022/08/23 11:43:26;;;;;;;5.43;1.80;;;;;;;;;;5057861;28;20074;-66
2022/08/23 11:45:52;;;;;;;7.30;2.15;;;;;;;;;;5058505;28;20512;-66
2022/08/23 11:48:27;;;;;;;7.97;2.42;;;;;;;;;;5059044;28;20080;-67
2022/08/23 11:51:07;;;;;;;7.35;2.75;;;;;;;;;;5058876;28;20036;-65
2022/08/23 11:53:48;;;;;;;9.93;3.25;;;;;;;;;;5050392;28;20048;-66
2022/08/23 11:56:38;;;;;;;5.95;2.70;;;;;;;;;;5055165;28;20091;-66
2022/08/23 11:59:33;;;;;;;13.85;3.10;;;;;;;;;;5059562;28;20035;-66
2022/08/23 12:02:30;;;;;;;9.68;4.38;;;;;;;;;;5048454;28;20037;-66
2022/08/23 12:04:59;;;;;;;7.72;3.00;;;;;;;;;;5051350;28;20032;-67
2022/08/23 12:08:06;;;;;;;7.03;3.30;;;;;;;;;;5051983;28;20025;-66
2022/08/23 12:10:41;;;;;;;7.90;2.92;;;;;;;;;;5045066;28;20045;-67
2022/08/23 12:13:19;;;;;;;8.52;3.30;;;;;;;;;;5052019;28;20021;-66
2022/08/23 12:16:12;;;;;;;7.43;2.78;;;;;;;;;;5056892;28;20054;-66
2022/08/23 12:18:50;;;;;;;12.73;3.58;;;;;;;;;;5057891;28;20021;-66
2022/08/23 12:21:38;;;;;;;9.35;2.83;;;;;;;;;;5054587;28;20036;-66
2022/08/23 12:24:13;;;;;;;7.68;2.22;;;;;;;;;;5059540;28;20668;-66
2022/08/23 12:26:54;;;;;;;5.53;2.30;;;;;;;;;;5058488;28;20112;-64
2022/08/23 12:29:44;;;;;;;5.93;2.30;;;;;;;;;;5061843;28;20090;-66
2022/08/23 12:32:15;;;;;;;8.10;2.50;;;;;;;;;;5059985;28;20024;-66
2022/08/23 12:34:43;;;;;;;6.05;2.40;;;;;;;;;;5064823;28;20540;-67
2022/08/23 12:37:29;;;;;;;5.93;2.53;;;;;;;;;;5060608;28;20033;-66
2022/08/23 12:39:58;;;;;;;5.03;2.38;;;;;;;;;;5062855;28;20036;-66
2022/08/23 12:42:42;;;;;;;10.70;2.65;;;;;;;;;;5055758;28;20101;-66
2022/08/23 12:45:18;;;;;;;7.75;2.67;;;;;;;;;;5062649;28;20029;-66
2022/08/23 12:47:59;;;;;;;7.88;2.75;;;;;;;;;;5059752;28;20029;-66
2022/08/23 12:50:33;;;;;;;6.13;2.20;;;;;;;;;;5058844;28;20025;-66
2022/08/23 12:53:06;;;;;;;6.90;2.00;;;;;;;;;;5059874;28;20048;-67
2022/08/23 12:55:35;;;;;;;4.88;1.92;;;;;;;;;;5059300;28;20025;-66
2022/08/23 12:58:03;;;;;;;4.22;1.95;;;;;;;;;;5061684;28;20033;-66
2022/08/23 13:00:37;;;;;;;9.65;1.60;;;;;;;;;;5057512;28;20037;-66
2022/08/23 13:03:17;;;;;;;4.90;1.60;;;;;;;;;;5056755;28;20044;-67
2022/08/23 13:05:44;;;;;;;;;;;;;;;;;;5056055;28;20029;-66
2022/08/23 13:08:14;;;;;;;4.90;1.90;;;;;;;;;;5065508;28;19916;-66
2022/08/23 13:10:42;;;;;;;4.22;1.58;;;;;;;;;;5062295;28;20491;-66
2022/08/23 13:13:14;;;;;;;6.35;1.58;;;;;;;;;;5055971;28;20086;-67
2022/08/23 13:15:50;;;;;;;5.90;2.03;;;;;;;;;;5065054;28;20117;-67
2022/08/23 13:18:23;;;;;;;4.45;1.52;;;;;;;;;;5059465;28;20452;-67
2022/08/23 13:20:48;;;;;;;3.30;1.50;;;;;;;;;;5060655;28;20021;-67
2022/08/23 13:23:27;;;;;;;3.03;1.58;;;;;;;;;;5066580;28;20249;-67
2022/08/23 13:25:52;;;;;;;4.60;1.58;;;;;;;;;;5060351;28;20029;-66
2022/08/23 13:28:27;;;;;;;4.18;1.70;;;;;;;;;;5061329;28;20025;-67
2022/08/23 13:31:06;;;;;;;3.78;1.70;;;;;;;;;;5059547;28;20024;-67
2022/08/23 13:33:32;;;;;;;4.80;1.80;;;;;;;;;;5059040;28;20056;-66
2022/08/23 13:36:11;;;;;;;6.72;1.88;;;;;;;;;;5053879;28;20069;-66
2022/08/23 13:38:36;;;;;;;3.67;1.50;;;;;;;;;;5061174;28;20029;-66
2022/08/23 13:41:07;;;;;;;7.47;1.83;;;;;;;;;;5073006;28;20375;-67
2022/08/23 13:43:46;;;;;;;4.20;1.67;;;;;;;;;;5073680;28;20031;-67
2022/08/23 13:46:17;;;;;;;9.50;1.97;;;;;;;;;;5073958;28;20060;-67
2022/08/23 13:48:49;;;;;;;5.82;1.73;;;;;;;;;;5073720;28;20024;-67
2022/08/23 13:51:28;;;;;;;4.88;1.70;;;;;;;;;;5073405;28;20032;-66
2022/08/23 13:53:55;;;;;;;4.90;1.73;;;;;;;;;;5065635;28;20036;-66
2022/08/23 13:56:22;;;;;;;4.45;1.65;;;;;;;;;;5052109;28;20282;-67
2022/08/23 13:59:00;;;;;;;4.88;2.00;;;;;;;;;;5049177;28;20418;-67
2022/08/23 14:01:26;;;;;;;6.20;1.80;;;;;;;;;;5055346;28;20040;-66
2022/08/23 14:03:52;;;;;;;5.85;1.70;;;;;;;;;;5055117;28;20054;-67
2022/08/23 14:06:18;;;;;;;3.40;1.42;;;;;;;;;;5060786;28;20394;-67
2022/08/23 14:08:44;;;;;;;5.55;1.75;;;;;;;;;;5057479;28;20093;-66
2022/08/23 14:11:13;;;;;;;5.40;2.15;;;;;;;;;;5064277;28;20024;-67
2022/08/23 14:13:39;;;;;;;7.38;2.28;;;;;;;;;;5058461;28;20480;-67
2022/08/23 14:16:07;;;;;;;6.95;2.60;;;;;;;;;;5057598;28;20063;-67
2022/08/23 14:18:33;;;;;;;7.82;2.83;;;;;;;;;;5064988;28;20082;-67
2022/08/23 14:20:59;;;;;;;8.48;1.88;;;;;;;;;;5065310;28;20020;-68
2022/08/23 14:23:24;;;;;;;6.82;2.00;;;;;;;;;;5067812;28;20026;-67
2022/08/23 14:25:53;;;;;;;6.95;2.38;;;;;;;;;;5064491;28;20036;-67
2022/08/23 14:28:20;;;;;;;5.17;2.43;;;;;;;;;;5068340;28;20056;-67
2022/08/23 14:30:46;;;;;;;5.93;2.00;;;;;;;;;;5062988;28;20028;-67
2022/08/23 14:33:12;;;;;;;8.00;2.80;;;;;;;;;;5064660;28;20106;-67
2022/08/23 14:35:38;;;;;;;8.63;2.28;;;;;;;;;;5053457;28;20483;-67
2022/08/23 14:38:03;;;;;;;6.22;1.80;;;;;;;;;;5049701;28;20033;-66
2022/08/23 14:40:29;;;;;;;7.88;2.20;;;;;;;;;;5052783;28;20025;-66
2022/08/23 14:42:54;;;;;;;8.60;2.13;;;;;;;;;;5060381;28;20065;-64
2022/08/23 14:45:20;;;;;;;7.00;2.63;;;;;;;;;;5060099;28;20028;-66
2022/08/23 14:47:46;;;;;;;7.72;2.65;;;;;;;;;;5059528;28;20494;-66
2022/08/23 14:50:13;;;;;;;6.70;2.28;;;;;;;;;;5052458;28;20116;-66
2022/08/23 14:52:42;;;;;;;5.68;1.90;;;;;;;;;;5067812;28;20090;-65
2022/08/23 14:55:08;;;;;;;5.47;2.50;;;;;;;;;;5067664;28;20039;-66
2022/08/23 14:57:34;;;;;;;5.13;2.22;;;;;;;;;;5067402;28;20175;-65
2022/08/23 15:00:00;;;;;;;10.90;3.30;;;;;;;;;;5068361;28;20116;-66
2022/08/23 15:02:26;;;;;;;7.00;2.53;;;;;;;;;;5068135;28;20012;-67
2022/08/23 15:04:53;;;;;;;9.43;2.35;;;;;;;;;;5067487;28;20406;-66
2022/08/23 15:07:19;;;;;;;5.78;2.67;;;;;;;;;;5067903;28;20021;-66
2022/08/23 15:09:50;;;;;;;8.25;2.60;;;;;;;;;;5067619;28;20498;-65
2022/08/23 15:12:17;;;;;;;8.13;2.88;;;;;;;;;;5067915;28;20032;-65
2022/08/23 15:14:43;;;;;;;6.47;1.98;;;;;;;;;;5067982;28;20486;-66